TAF Text Data
IDs:
Format:
Raw Decoded Include METAR

Data at: 1549 UTC 17 Oct 2021

Region: TOP
KATL 171412Z 1714/1818 34009KT P6SM SKC
  FM171500 34011G18KT P6SM SKC
  FM172200 33009KT P6SM SKC
  FM180200 35005KT P6SM SKC
  FM181200 VRB04KT P6SM SKC


KBOS 171501Z 1715/1818 30013G21KT P6SM FEW045
  FM172100 29009G17KT P6SM SCT060


KBWI 171458Z 1715/1818 30017G25KT P6SM FEW080
  FM171600 30020G30KT P6SM SCT060 BKN090
  FM172200 29011G22KT P6SM BKN060
  FM180000 28006KT P6SM FEW060
  FM181400 29011G22KT P6SM SCT050


KCLE 171435Z 1715/1818 25011G17KT P6SM BKN060
  FM171600 28013G25KT P6SM VCSH SCT100
  FM171700 29014G25KT P6SM SCT070
  FM181100 31010G20KT P6SM SKC


KCLT 171446Z 1715/1818 33009G17KT P6SM SKC
  FM172300 30003KT P6SM SKC
  FM181400 26006KT P6SM SKC


KCVG 171456Z 1715/1818 27007KT P6SM SKC
  FM171600 29011G18KT P6SM SKC
  FM172300 28005KT P6SM FEW250
  FM181600 28008KT P6SM SKC


KDCA 171457Z 1715/1818 31017G23KT P6SM FEW040 FEW120
  FM171600 31020G30KT P6SM SCT070
  FM172200 30012G23KT P6SM BKN070
  FM180000 29006KT P6SM FEW070
  FM181500 30011G22KT P6SM SCT050


KDEN 171456Z 1715/1818 24008KT P6SM SKC
  FM171600 VRB06KT P6SM SKC
  FM171900 08007KT P6SM FEW110
  FM180200 14007KT P6SM SKC
  FM180500 21010KT P6SM SCT220


KDFW 171502Z 1715/1818 15005KT P6SM SCT250

KDTW 171503Z 1715/1818 28008KT P6SM FEW040 SCT080
  FM171700 30013G20KT P6SM SCT050
  FM172000 30015G23KT P6SM BKN050
  FM180100 28008KT P6SM FEW050
  FM180900 31005KT P6SM SKC


KEWR 171433Z 1715/1818 29007KT P6SM FEW050
  FM171600 29015G22KT P6SM BKN050
  FM180100 28012KT P6SM SCT050
  FM181500 29013G23KT P6SM BKN050


KFLL 171504Z 1715/1818 32008KT P6SM FEW025 SCT060
  FM171800 02010KT P6SM VCSH SCT025 BKN050
  FM180000 03008KT P6SM VCSH SCT025 BKN050
  FM180300 04009KT P6SM FEW025 SCT050
  FM181000 04011KT P6SM FEW050 SCT250


KIAD 171457Z 1715/1818 31015G28KT P6SM FEW030 FEW080
  FM171600 31020G30KT P6SM SCT060
  FM172200 30012G23KT P6SM SCT070
  FM180000 29005KT P6SM FEW080
  FM181500 30010G21KT P6SM SCT050


KIAH 171459Z 1715/1818 04004KT P6SM SCT250
  FM171600 08005KT P6SM SCT250
  FM180000 VRB03KT P6SM SCT250


KJFK 171433Z 1715/1818 30015G22KT P6SM FEW035
  FM180100 29012KT P6SM SCT050
  FM181500 29015G25KT P6SM BKN050


KLAS 171455Z 1715/1818 22005KT P6SM SCT250
  FM171700 08007KT P6SM SCT250
  FM172200 21014G22KT P6SM SCT250
  FM181000 24015G24KT P6SM SKC
  FM181500 21018G26KT P6SM SKC


KLAX 171512Z 1715/1818 09003KT P6SM VCFG FEW005 FEW240
  FM171700 24006KT P6SM SCT200
  FM172100 26012KT P6SM SCT200
  FM180400 26006KT P6SM BKN012
  FM181200 VRB03KT P6SM OVC025


KLGA 171433Z 1715/1818 30014G20KT P6SM FEW035
  FM180100 30014KT P6SM SCT050
  FM180500 29010KT P6SM SCT050
  FM181500 29014G24KT P6SM BKN050


KMCO 171501Z 1715/1818 01012KT P6SM SCT060
  FM180200 02007KT P6SM SKC


KMDW 171456Z 1715/1818 29008KT P6SM FEW300
  FM171700 28013G20KT P6SM FEW300
  FM172300 28008KT P6SM SKC
  FM181600 24006KT P6SM SKC


KMEM 171451Z 1715/1818 35005KT P6SM SKC
  FM172200 VRB04KT P6SM SKC


KMIA 171504Z 1715/1818 32006KT P6SM FEW025 SCT060
  FM171900 02010KT P6SM VCSH SCT025 BKN050
  FM180300 01006KT P6SM FEW025 SCT050
  FM181000 04011KT P6SM FEW050 SCT250


KMSP 171445Z 1715/1818 23005KT P6SM SKC
  FM180100 16005KT P6SM SKC


KORD 171456Z 1715/1818 29008KT P6SM FEW300
  FM171700 28013G20KT P6SM FEW300
  FM172300 28008KT P6SM SKC
  FM181600 24006KT P6SM SKC


KPDX 171450Z 1715/1812 12006KT P6SM BKN040
  FM172100 VRB03KT P6SM -RA OVC030
  FM180100 30007KT P6SM -RA OVC040
  FM180400 30006KT P6SM VCSH SCT025 OVC045


KPHL 171459Z 1715/1818 30013G22KT P6SM SCT080
  FM171700 30013G22KT P6SM BKN060
  FM172300 30010KT P6SM FEW060
  FM180400 26006KT P6SM SKC
  FM181400 29011G19KT P6SM FEW200


KPHX 171455Z 1715/1818 11007KT P6SM FEW080 BKN200 BKN250
  FM171900 19007KT P6SM SCT100 BKN250
  FM172300 25010KT P6SM SCT250
  FM180700 10005KT P6SM SKC
  FM181700 18010KT P6SM SKC


KPIT 171450Z 1715/1818 29012G22KT P6SM BKN050
  FM180300 26005KT P6SM SCT050
  FM181500 30010G20KT P6SM SCT050


KSAN 171440Z 1715/1818 VRB04KT P6SM FEW250
  FM171900 26009KT P6SM SCT250
  FM180300 VRB04KT P6SM BKN015
  FM180900 VRB05KT P6SM VCSH BKN012


KSEA 171506Z 1715/1818 17006KT P6SM BKN060 OVC120
  FM172000 22008KT P6SM OVC050
  TEMPO 1723/1803 -SHRA OVC040
  FM180300 VRB05KT 6SM -RA BR OVC028
  FM181100 VRB04KT 4SM -DZ BR OVC015


KSFO 171501Z 1715/1818 21009KT P6SM FEW009 BKN200
  TEMPO 1716/1718 OVC009
  FM172000 26015G22KT P6SM SCT010 BKN050 BKN150
  FM180000 26016G27KT P6SM RA BKN025 OVC050
  FM180400 27012G18KT P6SM VCSH BKN030 OVC050
  FM180600 26015KT P6SM SCT030 BKN050
  FM181200 27013KT P6SM FEW030 SCT050


KSLC 171453Z 1715/1818 14006KT P6SM SKC
  FM171900 18012G22KT P6SM SCT250
  FM180200 16010KT P6SM SCT100 BKN200


KSTL 171459Z 1715/1818 27007KT P6SM SKC
  FM180000 22004KT P6SM SKC


KTPA 171501Z 1715/1818 03008KT P6SM FEW020 SCT110
  FM171800 35008KT P6SM FEW040
  FM180000 03006KT P6SM SKC
  FM181500 06006KT P6SM FEW040